Time;durP1;ratioP1;P1;durP2;ratioP2;P2;SDS_P1;SDS_P2;PMS_P1;PMS_P2;Temp;Humidity;BMP_temperature;BMP_pressure;BME280_temperature;BME280_humidity;BME280_pressure;Samples;Min_cycle;Max_cycle;Signal;HPM_P1;HPM_P2
2021/01/11 00:01:59;;;;;;;10.70;9.05;;;;;;;8.78;nan;101660.59;4977070;28;98153;-72
2021/01/11 00:04:45;;;;;;;8.68;7.78;;;;;;;8.76;nan;101660.47;4976362;28;98039;-73
2021/01/11 00:07:14;;;;;;;8.30;7.47;;;;;;;8.74;nan;101658.56;4976929;28;98368;-74
2021/01/11 00:09:41;;;;;;;8.63;7.72;;;;;;;8.73;nan;101648.84;4960451;28;98103;-73
2021/01/11 00:12:09;;;;;;;9.48;7.45;;;;;;;8.73;nan;101638.38;4976882;28;97997;-72
2021/01/11 00:14:37;;;;;;;8.95;7.38;;;;;;;8.70;nan;101643.41;4976651;28;99023;-72
2021/01/11 00:17:05;;;;;;;10.13;7.88;;;;;;;8.70;nan;101639.09;4976117;28;97434;-72
2021/01/11 00:19:33;;;;;;;8.13;6.93;;;;;;;8.69;nan;101642.47;4978119;28;97159;-72
2021/01/11 00:22:00;;;;;;;9.40;8.13;;;;;;;8.68;nan;101645.00;4976788;28;98211;-72
2021/01/11 00:24:28;;;;;;;10.38;7.82;;;;;;;8.70;nan;101646.03;4958656;28;97520;-72
2021/01/11 00:26:56;;;;;;;9.73;7.45;;;;;;;8.70;nan;101653.88;4958650;28;98426;-72
2021/01/11 00:29:24;;;;;;;8.88;7.45;;;;;;;8.73;nan;101655.00;4976641;28;97324;-73
2021/01/11 00:31:52;;;;;;;9.27;7.07;;;;;;;8.75;nan;101639.41;4977428;28;98154;-72
2021/01/11 00:34:20;;;;;;;11.90;7.43;;;;;;;8.70;nan;101649.56;4959623;28;98333;-72
2021/01/11 00:36:48;;;;;;;7.95;7.15;;;;;;;8.74;nan;101642.84;4974670;28;97483;-72
2021/01/11 00:39:15;;;;;;;8.93;7.65;;;;;;;8.76;nan;101649.06;4959450;28;96789;-72
2021/01/11 00:41:43;;;;;;;8.05;7.30;;;;;;;8.75;nan;101642.03;4976554;28;96664;-72
2021/01/11 00:44:10;;;;;;;9.50;7.20;;;;;;;8.78;nan;101644.88;4958348;28;101156;-72
2021/01/11 00:46:38;;;;;;;8.32;7.45;;;;;;;8.83;nan;101636.53;4958700;28;97410;-72
2021/01/11 00:49:07;;;;;;;8.85;7.80;;;;;;;8.85;nan;101641.94;4958689;28;97353;-72
2021/01/11 00:51:38;;;;;;;9.07;7.78;;;;;;;8.84;nan;101640.09;4959026;28;98890;-72
2021/01/11 00:54:07;;;;;;;11.23;7.47;;;;;;;8.82;nan;101642.59;4943054;28;100980;-73
2021/01/11 00:56:35;;;;;;;7.95;7.18;;;;;;;8.81;nan;101643.38;4958677;28;97567;-73
2021/01/11 00:59:07;;;;;;;7.20;6.50;;;;;;;8.83;nan;101641.78;4959024;28;98084;-72
2021/01/11 01:01:36;;;;;;;8.50;6.90;;;;;;;8.89;nan;101643.94;4956941;28;98615;-73
2021/01/11 01:04:05;;;;;;;8.30;7.35;;;;;;;8.92;nan;101647.69;4964125;28;97913;-72
2021/01/11 01:06:33;;;;;;;7.55;6.78;;;;;;;8.93;nan;101638.13;4959248;28;98179;-73
2021/01/11 01:09:01;;;;;;;9.43;7.45;;;;;;;8.93;nan;101638.13;4980726;28;97158;-72
2021/01/11 01:11:29;;;;;;;7.95;6.63;;;;;;;8.93;nan;101643.38;4958814;28;99039;-72
2021/01/11 01:13:58;;;;;;;7.90;7.10;;;;;;;8.91;nan;101637.09;4977004;28;99160;-73
2021/01/11 01:16:27;;;;;;;7.90;6.75;;;;;;;8.88;nan;101634.28;4958889;28;97769;-73
2021/01/11 01:18:55;;;;;;;9.55;6.85;;;;;;;8.88;nan;101636.91;4958995;28;97947;-73
2021/01/11 01:21:22;;;;;;;7.28;6.60;;;;;;;8.88;nan;101636.91;4976678;28;98974;-74
2021/01/11 01:23:51;;;;;;;8.25;6.70;;;;;;;8.89;nan;101637.00;4976689;28;99243;-73
2021/01/11 01:26:19;;;;;;;7.40;6.55;;;;;;;8.94;nan;101629.50;4976174;28;99430;-74
2021/01/11 01:28:53;;;;;;;7.47;6.82;;;;;;;8.95;nan;101642.72;4962112;28;97611;-74
2021/01/11 01:31:21;;;;;;;7.88;7.07;;;;;;;8.96;nan;101634.03;4979112;28;102159;-73
2021/01/11 01:33:48;;;;;;;9.52;7.55;;;;;;;9.00;nan;101637.78;4979978;28;97962;-74
2021/01/11 01:36:18;;;;;;;8.27;7.38;;;;;;;9.02;nan;101631.88;4980320;28;97123;-73
2021/01/11 01:38:45;;;;;;;7.95;7.15;;;;;;;9.03;nan;101630.16;4979192;28;97792;-72
2021/01/11 01:41:31;;;;;;;7.85;7.20;;;;;;;9.03;nan;101625.81;4979517;28;97623;-73
2021/01/11 01:43:59;;;;;;;8.48;7.50;;;;;;;9.05;nan;101628.56;4979909;28;98207;-73
2021/01/11 01:46:45;;;;;;;7.43;6.72;;;;;;;9.03;nan;101625.81;4978467;28;97453;-74
2021/01/11 01:49:13;;;;;;;8.65;7.78;;;;;;;9.05;nan;101618.97;4978004;28;98922;-73
2021/01/11 01:51:41;;;;;;;8.23;7.43;;;;;;;9.05;nan;101618.09;4979582;28;100813;-74
2021/01/11 01:54:08;;;;;;;8.07;7.28;;;;;;;9.08;nan;101611.34;4980020;28;97892;-73
2021/01/11 01:56:55;;;;;;;8.07;7.28;;;;;;;9.12;nan;101609.88;4979253;28;97763;-73
2021/01/11 01:59:23;;;;;;;9.57;7.57;;;;;;;9.15;nan;101611.00;4978203;28;97375;-74
2021/01/11 02:02:13;;;;;;;10.57;7.55;;;;;;;9.19;nan;101602.53;4978764;28;99602;-73
2021/01/11 02:04:41;;;;;;;8.23;7.43;;;;;;;9.21;nan;101611.41;4979645;28;97793;-73
2021/01/11 02:07:14;;;;;;;8.15;7.35;;;;;;;9.22;nan;101609.69;4960729;28;98273;-72
2021/01/11 02:09:44;;;;;;;9.07;6.95;;;;;;;9.21;nan;101610.53;4961921;28;98293;-74
2021/01/11 02:12:17;;;;;;;8.32;7.53;;;;;;;9.24;nan;101615.97;4979266;28;98526;-73
2021/01/11 02:14:55;;;;;;;9.05;7.57;;;;;;;9.22;nan;101601.84;4961595;28;97925;-73
2021/01/11 02:17:28;;;;;;;8.30;7.50;;;;;;;9.27;nan;101604.81;4959952;28;97671;-74
2021/01/11 02:20:34;;;;;;;8.40;7.70;;;;;;;9.22;nan;101607.06;4978674;28;96873;-72
2021/01/11 02:23:13;;;;;;;8.75;7.10;;;;;;;9.21;nan;101607.91;4978809;28;97916;-74
2021/01/11 02:25:42;;;;;;;8.07;7.28;;;;;;;9.21;nan;101598.28;4979001;28;97962;-74
2021/01/11 02:28:21;;;;;;;12.88;7.85;;;;;;;9.24;nan;101587.13;4977115;28;98333;-73
2021/01/11 02:30:52;;;;;;;9.20;8.30;;;;;;;9.31;nan;101585.84;4978818;28;97307;-72
2021/01/11 02:33:20;;;;;;;8.15;7.35;;;;;;;9.34;nan;101586.09;4979150;28;97882;-73
2021/01/11 02:36:09;;;;;;;9.35;7.90;;;;;;;9.38;nan;101581.13;4960054;28;97765;-73
2021/01/11 02:38:37;;;;;;;8.77;7.80;;;;;;;9.38;nan;101585.50;4955737;28;97477;-73
2021/01/11 02:41:05;;;;;;;8.25;7.43;;;;;;;9.38;nan;101582.88;4979472;28;97553;-73
2021/01/11 02:43:33;;;;;;;8.60;7.80;;;;;;;9.40;nan;101589.16;4978980;28;98637;-73
2021/01/11 02:46:02;;;;;;;8.50;7.70;;;;;;;9.43;nan;101586.72;4977400;28;99209;-73
2021/01/11 02:48:34;;;;;;;9.70;7.57;;;;;;;9.46;nan;101582.59;4975237;28;98101;-73
2021/01/11 02:51:18;;;;;;;8.23;7.30;;;;;;;9.48;nan;101593.19;4977069;28;97639;-73
2021/01/11 02:53:59;;;;;;;8.85;7.75;;;;;;;9.47;nan;101589.66;4958444;28;98655;-73
2021/01/11 02:56:31;;;;;;;7.63;6.90;;;;;;;9.48;nan;101593.19;4978410;28;98142;-73
2021/01/11 02:59:14;;;;;;;7.50;6.85;;;;;;;9.48;nan;101606.31;4976747;28;96878;-72
2021/01/11 03:02:04;;;;;;;10.60;7.75;;;;;;;9.46;nan;101587.84;4958122;28;97553;-73
2021/01/11 03:04:32;;;;;;;8.43;7.38;;;;;;;9.46;nan;101595.72;4976537;28;99225;-72
2021/01/11 03:07:05;;;;;;;8.13;7.32;;;;;;;9.46;nan;101593.09;4976790;28;99068;-73
2021/01/11 03:09:34;;;;;;;9.50;7.93;;;;;;;9.48;nan;101586.25;4958873;28;97641;-73
2021/01/11 03:12:02;;;;;;;8.90;8.00;;;;;;;9.50;nan;101592.50;4977984;28;97449;-74
2021/01/11 03:14:29;;;;;;;10.15;7.35;;;;;;;9.51;nan;101589.06;4977090;28;99248;-73
2021/01/11 03:16:57;;;;;;;8.27;7.35;;;;;;;9.54;nan;101591.94;4978275;28;101790;-73
2021/01/11 03:19:26;;;;;;;8.55;7.78;;;;;;;9.56;nan;101590.28;4976680;28;97785;-72
2021/01/11 03:21:53;;;;;;;8.27;7.43;;;;;;;9.55;nan;101582.31;4943318;28;98402;-73
2021/01/11 03:24:21;;;;;;;8.75;6.80;;;;;;;9.59;nan;101576.50;4959926;28;98125;-74
2021/01/11 03:26:50;;;;;;;7.45;6.85;;;;;;;9.56;nan;101578.91;4975271;28;97526;-73
2021/01/11 03:29:19;;;;;;;9.30;6.88;;;;;;;9.55;nan;101571.84;4976939;28;97725;-73
2021/01/11 03:31:47;;;;;;;8.13;7.38;;;;;;;9.56;nan;101571.94;4976006;28;97267;-74
2021/01/11 03:34:15;;;;;;;8.05;7.25;;;;;;;9.58;nan;101569.44;4976240;28;99445;-74
2021/01/11 03:36:44;;;;;;;7.82;7.13;;;;;;;9.63;nan;101560.19;4942676;28;100618;-73
2021/01/11 03:39:12;;;;;;;7.93;6.97;;;;;;;9.62;nan;101555.72;4977574;28;97843;-73
2021/01/11 03:41:41;;;;;;;8.95;7.00;;;;;;;9.62;nan;101551.38;4976772;28;97156;-74
2021/01/11 03:44:10;;;;;;;8.05;7.38;;;;;;;9.63;nan;101554.94;4976244;28;98197;-73
2021/01/11 03:46:37;;;;;;;9.98;7.65;;;;;;;9.62;nan;101550.47;4960596;28;97227;-73
2021/01/11 03:49:05;;;;;;;7.40;6.53;;;;;;;9.66;nan;101548.19;4958720;28;97786;-72
2021/01/11 03:51:33;;;;;;;7.97;7.18;;;;;;;9.64;nan;101557.66;4958802;28;97521;-73
2021/01/11 03:54:02;;;;;;;7.47;6.75;;;;;;;9.64;nan;101552.41;4976698;28;97552;-73
2021/01/11 03:56:29;;;;;;;7.40;6.80;;;;;;;9.64;nan;101547.16;4959135;28;97979;-73
2021/01/11 03:58:57;;;;;;;8.10;7.38;;;;;;;9.62;nan;101540.88;4976422;28;97916;-73
2021/01/11 04:01:26;;;;;;;7.68;6.47;;;;;;;9.60;nan;101539.88;4977388;28;97516;-72
2021/01/11 04:03:54;;;;;;;8.95;7.95;;;;;;;9.62;nan;101543.50;4959503;28;98909;-71
2021/01/11 04:06:22;;;;;;;9.45;8.13;;;;;;;9.66;nan;101539.38;4943267;28;100289;-73
2021/01/11 04:09:10;;;;;;;7.68;6.82;;;;;;;9.69;nan;101547.50;4976239;28;97549;-72
2021/01/11 04:11:37;;;;;;;9.70;7.28;;;;;;;9.70;nan;101541.44;4975573;28;97484;-72
2021/01/11 04:14:05;;;;;;;7.82;7.00;;;;;;;9.70;nan;101541.44;4977515;28;98168;-72
2021/01/11 04:16:33;;;;;;;8.32;6.80;;;;;;;9.67;nan;101535.97;4977075;28;97975;-72
2021/01/11 04:19:01;;;;;;;7.80;6.80;;;;;;;9.72;nan;101545.97;4976174;28;98055;-73
2021/01/11 04:21:29;;;;;;;8.45;7.43;;;;;;;9.70;nan;101541.44;4959660;28;97413;-72
2021/01/11 04:23:56;;;;;;;8.85;7.97;;;;;;;9.69;nan;101535.25;4958856;28;98428;-73
2021/01/11 04:26:25;;;;;;;8.73;7.82;;;;;;;9.72;nan;101535.50;4957955;28;97847;-73
2021/01/11 04:28:52;;;;;;;12.52;9.38;;;;;;;9.73;nan;101532.03;4976362;28;97192;-72
2021/01/11 04:31:21;;;;;;;27.33;17.98;;;;;;;9.69;nan;101530.00;4976386;28;97440;-73
2021/01/11 04:33:49;;;;;;;13.32;10.27;;;;;;;9.71;nan;101528.41;4976685;28;97736;-73
2021/01/11 04:36:16;;;;;;;10.45;7.75;;;;;;;9.73;nan;101532.03;4958819;28;97964;-73
2021/01/11 04:38:43;;;;;;;8.27;7.43;;;;;;;9.70;nan;101531.84;4976663;28;97272;-73
2021/01/11 04:41:11;;;;;;;8.20;7.50;;;;;;;9.70;nan;101525.69;4976247;28;97353;-73
2021/01/11 04:43:42;;;;;;;8.45;7.20;;;;;;;9.69;nan;101530.00;4976816;28;99190;-72
2021/01/11 04:46:10;;;;;;;8.57;7.68;;;;;;;9.71;nan;101524.88;4959433;28;97932;-73
2021/01/11 04:48:38;;;;;;;9.20;8.30;;;;;;;9.67;nan;101523.75;4975072;28;97308;-72
2021/01/11 04:51:06;;;;;;;9.63;8.63;;;;;;;9.66;nan;101519.31;4976538;28;97895;-73
2021/01/11 04:53:35;;;;;;;8.50;7.70;;;;;;;9.65;nan;101522.72;4976144;28;98101;-73
2021/01/11 04:56:04;;;;;;;10.93;8.00;;;;;;;9.68;nan;101527.28;4977512;28;98068;-73
2021/01/11 04:58:53;;;;;;;9.15;8.25;;;;;;;9.70;nan;101518.72;4975047;28;97374;-73
2021/01/11 05:01:22;;;;;;;22.13;13.32;;;;;;;9.70;nan;101516.09;4972155;28;97371;-73
2021/01/11 05:03:51;;;;;;;9.48;7.82;;;;;;;9.69;nan;101516.91;4972996;28;97909;-73
2021/01/11 05:06:19;;;;;;;10.05;8.10;;;;;;;9.68;nan;101520.34;4956060;28;99202;-73
2021/01/11 05:08:46;;;;;;;10.68;8.90;;;;;;;9.66;nan;101515.78;4975070;28;97348;-73
2021/01/11 05:14:01;;;;;;;17.73;11.35;;;;;;;9.69;nan;101518.63;4975186;28;98364;-73
2021/01/11 05:16:29;;;;;;;42.08;20.48;;;;;;;9.74;nan;101509.34;4975647;28;98217;-73
2021/01/11 05:19:01;;;;;;;31.13;18.45;;;;;;;9.75;nan;101506.81;4977385;28;97562;-73
2021/01/11 05:21:38;;;;;;;23.45;13.73;;;;;;;9.74;nan;101506.72;4959742;28;97204;-72
2021/01/11 05:24:27;;;;;;;12.60;9.90;;;;;;;9.73;nan;101511.06;4976675;28;96972;-71
2021/01/11 05:26:59;;;;;;;10.27;8.32;;;;;;;9.72;nan;101509.25;4956618;28;97916;-72
2021/01/11 05:29:28;;;;;;;9.68;8.68;;;;;;;9.76;nan;101506.00;4958672;28;97296;-72
2021/01/11 05:31:57;;;;;;;10.75;8.80;;;;;;;9.79;nan;101508.84;4959776;28;97411;-72
2021/01/11 05:34:44;;;;;;;9.95;8.68;;;;;;;9.77;nan;101497.34;4973801;28;97169;-73
2021/01/11 05:37:30;;;;;;;10.00;8.60;;;;;;;9.81;nan;101495.84;4977024;28;97967;-72
2021/01/11 05:40:10;;;;;;;12.73;10.40;;;;;;;9.81;nan;101488.88;4957947;28;98051;-72
2021/01/11 05:42:39;;;;;;;15.27;9.88;;;;;;;9.81;nan;101486.25;4973509;28;96796;-74
2021/01/11 05:45:15;;;;;;;16.85;11.02;;;;;;;9.78;nan;101478.16;4957558;28;98112;-74
2021/01/11 05:47:57;;;;;;;11.60;8.88;;;;;;;9.80;nan;101481.81;4975511;28;101510;-74
2021/01/11 05:50:26;;;;;;;9.45;8.13;;;;;;;9.78;nan;101490.41;4975290;28;97268;-74
2021/01/11 05:52:54;;;;;;;13.60;9.18;;;;;;;9.76;nan;101489.38;4975777;28;97460;-74
2021/01/11 05:55:26;;;;;;;10.43;9.18;;;;;;;9.77;nan;101494.72;4974318;28;100422;-74
2021/01/11 05:57:58;;;;;;;12.15;8.65;;;;;;;9.79;nan;101484.31;4955296;28;98945;-74
2021/01/11 06:00:28;;;;;;;9.55;8.60;;;;;;;9.80;nan;101480.88;4973171;28;97420;-74
2021/01/11 06:02:57;;;;;;;11.07;9.07;;;;;;;9.82;nan;101471.41;4970645;28;97872;-74
2021/01/11 06:05:27;;;;;;;10.25;8.60;;;;;;;9.79;nan;101474.75;4973181;28;97864;-72
2021/01/11 06:07:55;;;;;;;9.07;7.93;;;;;;;9.76;nan;101481.50;4955537;28;97002;-74
2021/01/11 06:10:23;;;;;;;10.70;8.73;;;;;;;9.71;nan;101480.25;4971699;28;97562;-74
2021/01/11 06:12:52;;;;;;;11.68;8.65;;;;;;;9.67;nan;101481.78;4974718;28;97088;-74
2021/01/11 06:15:21;;;;;;;12.40;9.50;;;;;;;9.67;nan;101475.66;4960162;28;98266;-73
2021/01/11 06:17:51;;;;;;;12.60;8.90;;;;;;;9.65;nan;101470.25;4977943;28;97391;-73
2021/01/11 06:20:20;;;;;;;8.77;7.82;;;;;;;9.66;nan;101474.72;4960258;28;97494;-74
2021/01/11 06:23:12;;;;;;;10.77;8.75;;;;;;;9.65;nan;101485.13;4979330;28;97968;-75
2021/01/11 06:25:43;;;;;;;12.85;9.30;;;;;;;9.59;nan;101485.63;4978056;28;97790;-74
2021/01/11 06:28:32;;;;;;;10.65;8.75;;;;;;;9.55;nan;101485.28;4976989;28;98551;-74
2021/01/11 06:31:10;;;;;;;9.52;8.10;;;;;;;9.54;nan;101481.78;4978283;28;97164;-73
2021/01/11 06:33:40;;;;;;;10.57;8.77;;;;;;;9.55;nan;101480.97;4956620;28;97639;-73
2021/01/11 06:36:22;;;;;;;13.25;9.80;;;;;;;9.58;nan;101482.91;4976862;28;99434;-72
2021/01/11 06:38:50;;;;;;;13.13;9.23;;;;;;;9.59;nan;101483.00;4958051;28;98111;-73
2021/01/11 06:41:19;;;;;;;10.98;9.23;;;;;;;9.61;nan;101483.09;4968944;28;98387;-73
2021/01/11 06:43:48;;;;;;;10.90;9.68;;;;;;;9.62;nan;101484.88;4969120;28;97158;-74
2021/01/11 06:46:44;;;;;;;11.65;9.18;;;;;;;9.62;nan;101483.19;4957191;28;100933;-72
2021/01/11 06:49:25;;;;;;;13.40;9.82;;;;;;;9.62;nan;101475.31;4958648;28;100423;-73
2021/01/11 06:52:07;;;;;;;10.77;9.20;;;;;;;9.62;nan;101470.06;4975080;28;97994;-72
2021/01/11 06:54:36;;;;;;;13.20;9.55;;;;;;;9.65;nan;101474.63;4976015;28;96858;-74
2021/01/11 06:57:13;;;;;;;12.40;9.80;;;;;;;9.60;nan;101461.19;4955013;28;98981;-74
2021/01/11 06:59:41;;;;;;;12.60;9.07;;;;;;;9.59;nan;101468.97;4959413;28;98153;-72
2021/01/11 07:02:19;;;;;;;12.35;9.27;;;;;;;9.51;nan;101465.81;4969778;28;98739;-72
2021/01/11 07:04:48;;;;;;;10.75;9.40;;;;;;;9.52;nan;101471.97;4970037;28;96924;-72
2021/01/11 07:07:23;;;;;;;12.65;9.88;;;;;;;9.53;nan;101471.16;4971948;28;99197;-74
2021/01/11 07:09:57;;;;;;;10.52;9.02;;;;;;;9.52;nan;101469.34;4972704;28;97650;-74
2021/01/11 07:12:25;;;;;;;13.18;9.85;;;;;;;9.57;nan;101470.56;4967624;28;100134;-71
2021/01/11 07:15:05;;;;;;;12.18;9.38;;;;;;;9.58;nan;101468.03;4954971;28;98020;-72
2021/01/11 07:17:40;;;;;;;12.00;9.48;;;;;;;9.59;nan;101462.00;4972812;28;98393;-73
2021/01/11 07:20:11;;;;;;;15.27;9.52;;;;;;;9.63;nan;101452.63;4954977;28;97832;-73
2021/01/11 07:22:40;;;;;;;14.45;10.00;;;;;;;9.67;nan;101462.53;4970256;28;97341;-73
2021/01/11 07:25:12;;;;;;;11.68;8.93;;;;;;;9.65;nan;101457.16;4969040;28;97609;-73
2021/01/11 07:27:39;;;;;;;11.73;9.07;;;;;;;9.69;nan;101459.19;4970511;28;97715;-73
2021/01/11 07:30:08;;;;;;;11.95;9.05;;;;;;;9.68;nan;101462.63;4971027;28;97803;-72
2021/01/11 07:32:35;;;;;;;10.32;9.27;;;;;;;9.65;nan;101459.78;4971429;28;97655;-74
2021/01/11 07:35:11;;;;;;;13.98;9.52;;;;;;;9.63;nan;101450.91;4956421;28;97239;-72
2021/01/11 07:37:39;;;;;;;10.07;8.95;;;;;;;9.63;nan;101456.16;4953239;28;101330;-73
2021/01/11 07:40:08;;;;;;;12.05;9.30;;;;;;;9.62;nan;101454.34;4942071;28;99244;-73
2021/01/11 07:42:36;;;;;;;10.73;9.30;;;;;;;9.64;nan;101465.84;4970765;28;98005;-73
2021/01/11 07:45:08;;;;;;;10.52;9.43;;;;;;;9.64;nan;101464.91;4972426;28;97646;-72
2021/01/11 07:47:37;;;;;;;10.63;9.40;;;;;;;9.64;nan;101459.69;4970366;28;98172;-73
2021/01/11 07:50:06;;;;;;;10.40;9.15;;;;;;;9.65;nan;101459.78;4956905;28;97991;-74
2021/01/11 07:52:35;;;;;;;10.63;9.02;;;;;;;9.64;nan;101452.72;4947634;28;99363;-72
2021/01/11 07:55:06;;;;;;;12.38;8.73;;;;;;;9.64;nan;101463.22;4971697;28;97773;-73
2021/01/11 07:57:34;;;;;;;11.75;10.00;;;;;;;9.61;nan;101463.03;4952199;28;98706;-73
2021/01/11 08:00:05;;;;;;;15.07;9.88;;;;;;;9.62;nan;101451.72;4969134;28;101006;-73
2021/01/11 08:02:39;;;;;;;12.27;8.82;;;;;;;9.62;nan;101456.94;4970067;28;97990;-73
2021/01/11 08:05:20;;;;;;;11.13;9.95;;;;;;;9.59;nan;101459.38;4957714;28;98922;-72
2021/01/11 08:07:57;;;;;;;12.52;9.77;;;;;;;9.58;nan;101464.53;4951994;28;100080;-74
2021/01/11 08:10:24;;;;;;;12.55;9.40;;;;;;;9.55;nan;101465.22;4952927;28;97484;-72
2021/01/11 08:12:52;;;;;;;10.30;8.38;;;;;;;9.53;nan;101472.06;4970245;28;98066;-72
2021/01/11 08:15:20;;;;;;;10.80;9.23;;;;;;;9.54;nan;101460.78;4971210;28;98346;-72
2021/01/11 08:17:47;;;;;;;13.77;9.63;;;;;;;9.52;nan;101467.66;4970335;28;98944;-74
2021/01/11 08:20:23;;;;;;;11.13;9.43;;;;;;;9.54;nan;101471.28;4967613;28;97847;-73
2021/01/11 08:22:52;;;;;;;11.70;8.93;;;;;;;9.50;nan;101465.72;4952073;28;98643;-74
2021/01/11 08:25:20;;;;;;;11.35;9.40;;;;;;;9.57;nan;101460.06;4955457;28;97561;-75
2021/01/11 08:27:49;;;;;;;11.52;9.18;;;;;;;9.59;nan;101463.72;4941587;28;99422;-70
2021/01/11 08:30:20;;;;;;;13.27;9.35;;;;;;;9.62;nan;101464.81;4957488;28;97961;-73
2021/01/11 08:32:48;;;;;;;11.55;9.30;;;;;;;9.64;nan;101462.31;4959635;28;97312;-71
2021/01/11 08:35:17;;;;;;;10.75;8.98;;;;;;;9.69;nan;101461.81;4970089;28;97670;-74
2021/01/11 08:37:45;;;;;;;13.75;9.70;;;;;;;9.72;nan;101462.03;4937116;28;99867;-71
2021/01/11 08:40:17;;;;;;;11.27;9.48;;;;;;;9.72;nan;101458.50;4970617;28;97986;-72
2021/01/11 08:42:46;;;;;;;11.90;9.40;;;;;;;9.71;nan;101456.66;4957389;28;97941;-74
2021/01/11 08:45:26;;;;;;;11.88;8.77;;;;;;;9.71;nan;101457.56;4970074;28;97390;-74
2021/01/11 08:48:01;;;;;;;11.52;8.82;;;;;;;9.74;nan;101459.50;4952672;28;97800;-75
2021/01/11 08:50:29;;;;;;;15.48;9.07;;;;;;;9.75;nan;101462.22;4939297;28;98224;-73
2021/01/11 08:52:57;;;;;;;9.52;8.60;;;;;;;9.71;nan;101454.94;4966460;28;98111;-72
2021/01/11 08:55:26;;;;;;;12.05;9.05;;;;;;;9.73;nan;101463.84;4965757;28;97918;-74
2021/01/11 08:57:57;;;;;;;13.50;10.05;;;;;;;9.74;nan;101463.03;4969206;28;98003;-73
2021/01/11 09:00:25;;;;;;;10.48;9.05;;;;;;;9.73;nan;101461.22;4972662;28;98610;-75
2021/01/11 09:02:53;;;;;;;12.55;9.93;;;;;;;9.77;nan;101455.38;4950806;28;98653;-75
2021/01/11 09:05:23;;;;;;;10.30;9.20;;;;;;;9.81;nan;101443.34;4958219;28;98043;-74
2021/01/11 09:07:51;;;;;;;11.65;9.38;;;;;;;9.83;nan;101455.78;4969651;28;96948;-73
2021/01/11 09:10:20;;;;;;;13.75;9.10;;;;;;;9.81;nan;101451.22;4969948;28;97507;-74
2021/01/11 09:12:49;;;;;;;14.57;9.60;;;;;;;9.81;nan;101456.47;4969092;28;98058;-75
2021/01/11 09:15:27;;;;;;;13.02;9.60;;;;;;;9.79;nan;101466.88;4955515;28;98064;-73
2021/01/11 09:18:03;;;;;;;11.23;8.95;;;;;;;9.78;nan;101462.41;4969303;28;97712;-72
2021/01/11 09:20:31;;;;;;;10.50;8.93;;;;;;;9.75;nan;101464.84;4953648;28;99456;-74
2021/01/11 09:22:58;;;;;;;10.90;8.82;;;;;;;9.73;nan;101468.16;4953512;28;98285;-74
2021/01/11 09:25:28;;;;;;;9.95;8.25;;;;;;;9.69;nan;101467.06;4952854;28;98809;-74
2021/01/11 09:27:57;;;;;;;11.88;7.88;;;;;;;9.72;nan;101468.97;4969859;28;99169;-74
2021/01/11 09:30:25;;;;;;;9.52;8.60;;;;;;;9.71;nan;101475.94;4938130;28;97984;-74
2021/01/11 09:32:53;;;;;;;11.02;8.65;;;;;;;9.72;nan;101469.91;4969710;28;98437;-74
2021/01/11 09:35:20;;;;;;;9.07;8.18;;;;;;;9.72;nan;101469.91;4949777;28;97025;-72
2021/01/11 09:37:48;;;;;;;10.18;8.75;;;;;;;9.75;nan;101466.56;4956646;28;98391;-75
2021/01/11 09:40:17;;;;;;;9.73;8.32;;;;;;;9.76;nan;101468.38;4971495;28;97299;-73
2021/01/11 09:42:46;;;;;;;11.38;8.68;;;;;;;9.80;nan;101463.44;4974425;28;98197;-72
2021/01/11 09:45:15;;;;;;;9.63;8.27;;;;;;;9.75;nan;101470.09;4976478;28;97766;-74
2021/01/11 09:47:44;;;;;;;10.45;8.35;;;;;;;9.77;nan;101465.88;4958270;28;101007;-75
2021/01/11 09:50:13;;;;;;;10.88;8.63;;;;;;;9.77;nan;101455.38;4960236;28;100277;-75
2021/01/11 09:52:40;;;;;;;9.52;8.23;;;;;;;9.77;nan;101455.38;4978898;28;98095;-75
2021/01/11 09:55:10;;;;;;;12.90;8.30;;;;;;;9.78;nan;101454.53;4975329;28;97899;-73
2021/01/11 09:57:39;;;;;;;10.68;8.65;;;;;;;9.78;nan;101446.69;4977034;28;99065;-74
2021/01/11 10:00:09;;;;;;;9.82;8.82;;;;;;;9.79;nan;101448.50;4977382;28;98433;-75
2021/01/11 10:02:39;;;;;;;9.77;8.73;;;;;;;9.76;nan;101453.53;4977575;28;97310;-71
2021/01/11 10:05:07;;;;;;;10.20;8.48;;;;;;;9.73;nan;101455.97;4958062;28;97812;-76
2021/01/11 10:07:35;;;;;;;11.65;8.50;;;;;;;9.73;nan;101448.09;4960920;28;99684;-73
2021/01/11 10:10:03;;;;;;;10.45;8.63;;;;;;;9.78;nan;101436.19;4962470;28;99499;-77
2021/01/11 10:12:31;;;;;;;10.00;8.02;;;;;;;9.83;nan;101442.66;4979390;28;97938;-76
2021/01/11 10:14:58;;;;;;;10.05;8.30;;;;;;;9.82;nan;101429.41;4978914;28;97480;-72
2021/01/11 10:17:27;;;;;;;8.85;7.78;;;;;;;9.77;nan;101428.22;4959775;28;99789;-71
2021/01/11 10:19:55;;;;;;;14.02;8.75;;;;;;;9.79;nan;101421.34;4978009;28;97797;-71
2021/01/11 10:22:23;;;;;;;9.35;8.30;;;;;;;9.79;nan;101416.09;4978223;28;97429;-74
2021/01/11 10:24:50;;;;;;;8.98;8.07;;;;;;;9.81;nan;101409.25;4960668;28;96934;-74
2021/01/11 10:27:18;;;;;;;10.38;8.90;;;;;;;9.83;nan;101407.66;4958825;28;100996;-71
2021/01/11 10:29:45;;;;;;;9.30;7.78;;;;;;;9.86;nan;101406.13;4972986;28;98193;-72
2021/01/11 10:32:13;;;;;;;11.18;8.15;;;;;;;9.89;nan;101397.56;4958060;28;96902;-73
2021/01/11 10:34:40;;;;;;;13.40;8.77;;;;;;;9.95;nan;101390.06;4978482;28;97350;-74
2021/01/11 10:37:09;;;;;;;13.18;8.85;;;;;;;9.98;nan;101372.78;4978109;28;98100;-73
2021/01/11 10:39:36;;;;;;;9.38;8.15;;;;;;;10.03;nan;101363.53;4957593;28;97131;-73
2021/01/11 10:42:04;;;;;;;10.65;8.98;;;;;;;10.01;nan;101365.13;4970228;28;98911;-70
2021/01/11 10:44:31;;;;;;;13.10;8.65;;;;;;;10.04;nan;101367.03;4952560;28;97346;-73
2021/01/11 10:47:00;;;;;;;11.52;8.32;;;;;;;10.04;nan;101352.19;4958794;28;99588;-72
2021/01/11 10:49:28;;;;;;;12.02;8.95;;;;;;;10.08;nan;101361.19;4976885;28;98000;-73
2021/01/11 10:52:16;;;;;;;11.93;8.80;;;;;;;10.10;nan;101368.41;4953954;28;98553;-71
2021/01/11 10:54:44;;;;;;;14.45;9.52;;;;;;;10.12;nan;101369.41;4969478;28;97390;-74
2021/01/11 10:57:11;;;;;;;12.50;9.48;;;;;;;10.09;nan;101366.56;4967590;28;99340;-73
2021/01/11 10:59:39;;;;;;;12.00;8.40;;;;;;;10.08;nan;101363.81;4975180;28;97865;-71
2021/01/11 11:02:08;;;;;;;10.45;7.97;;;;;;;10.01;nan;101357.25;4967389;28;97537;-73
2021/01/11 11:04:36;;;;;;;12.38;8.75;;;;;;;10.04;nan;101362.69;4974047;28;98904;-71
2021/01/11 11:07:04;;;;;;;9.30;8.40;;;;;;;9.99;nan;101363.22;4970259;28;97409;-74
2021/01/11 11:09:32;;;;;;;8.73;7.72;;;;;;;10.02;nan;101358.16;4970486;28;97921;-74
2021/01/11 11:12:00;;;;;;;9.65;8.23;;;;;;;10.04;nan;101349.56;4974909;28;97474;-73
2021/01/11 11:14:28;;;;;;;9.35;8.13;;;;;;;10.11;nan;101341.31;4970354;28;97373;-73
2021/01/11 11:16:56;;;;;;;10.05;8.30;;;;;;;10.19;nan;101329.59;4976661;28;99504;-73
2021/01/11 11:19:23;;;;;;;12.88;9.05;;;;;;;10.22;nan;101325.34;4970190;28;98172;-72
2021/01/11 11:21:51;;;;;;;9.18;8.25;;;;;;;10.25;nan;101318.56;4957092;28;97754;-73
2021/01/11 11:24:18;;;;;;;9.98;8.02;;;;;;;10.34;nan;101313.91;4970869;28;97448;-74
2021/01/11 11:26:47;;;;;;;11.98;9.27;;;;;;;10.33;nan;101319.06;4969717;28;98012;-71
2021/01/11 11:29:17;;;;;;;11.23;8.65;;;;;;;10.37;nan;101316.69;4973825;28;98266;-71
2021/01/11 11:31:45;;;;;;;11.75;8.10;;;;;;;10.44;nan;101318.00;4972185;28;97971;-70
2021/01/11 11:34:13;;;;;;;12.68;9.32;;;;;;;10.48;nan;101313.03;4970680;28;98706;-72
2021/01/11 11:36:40;;;;;;;9.48;7.80;;;;;;;10.52;nan;101307.16;4974992;28;98223;-73
2021/01/11 11:39:30;;;;;;;9.45;7.85;;;;;;;10.55;nan;101312.59;4976818;28;97345;-73
2021/01/11 11:41:59;;;;;;;12.82;8.43;;;;;;;10.58;nan;101310.16;4975565;28;97074;-70
2021/01/11 11:44:28;;;;;;;10.38;8.85;;;;;;;10.64;nan;101306.97;4975466;28;97578;-72
2021/01/11 11:46:55;;;;;;;12.25;8.57;;;;;;;10.70;nan;101303.03;4973310;28;97883;-72
2021/01/11 11:49:23;;;;;;;9.20;8.23;;;;;;;10.76;nan;101302.47;4969916;28;98348;-71
2021/01/11 11:51:51;;;;;;;9.70;8.15;;;;;;;10.81;nan;101301.03;4973245;28;98209;-73
2021/01/11 11:54:19;;;;;;;10.73;8.30;;;;;;;10.87;nan;101290.91;4967786;28;97755;-72
2021/01/11 11:56:47;;;;;;;12.05;7.97;;;;;;;10.87;nan;101290.91;4974321;28;98143;-73
2021/01/11 11:59:15;;;;;;;11.88;8.60;;;;;;;10.93;nan;101288.66;4975699;28;98093;-72
2021/01/11 12:01:43;;;;;;;9.85;7.93;;;;;;;10.97;nan;101282.72;4973075;28;98002;-72
2021/01/11 12:04:11;;;;;;;10.73;8.15;;;;;;;11.02;nan;101276.06;4973094;28;98590;-72